createdAt,value
2019-04-13T00:00:42.750Z,102709.63
2019-04-13T00:01:49.505Z,102706.47
2019-04-13T00:02:51.754Z,102703.48
2019-04-13T00:03:53.948Z,102706.47
2019-04-13T00:05:15.108Z,102703.86
2019-04-13T00:06:27.497Z,102708.51
2019-04-13T00:07:29.696Z,102703.86
2019-04-13T00:08:33.958Z,102703.30
2019-04-13T00:09:36.185Z,102706.47
2019-04-13T00:11:03.372Z,102696.41
2019-04-13T00:12:33.541Z,102699.39
2019-04-13T00:13:35.743Z,102698.08
2019-04-13T00:14:38.265Z,102693.80
2019-04-13T00:15:40.498Z,102698.83
2019-04-13T00:16:42.861Z,102698.65
2019-04-13T00:17:45.088Z,102694.17
2019-04-13T00:18:47.310Z,102698.08
2019-04-13T00:19:49.526Z,102701.99
2019-04-13T00:20:51.766Z,102701.06
2019-04-13T00:21:53.985Z,102695.85
2019-04-13T00:22:56.190Z,102704.04
2019-04-13T00:23:58.422Z,102702.73
2019-04-13T00:25:00.618Z,102700.13
2019-04-13T00:26:02.759Z,102697.16
2019-04-13T00:27:04.962Z,102696.95
2019-04-13T00:28:07.221Z,102693.61
2019-04-13T00:29:09.434Z,102695.28
2019-04-13T00:30:11.633Z,102694.36
2019-04-13T00:31:13.850Z,102696.22
2019-04-13T00:32:16.054Z,102700.13
2019-04-13T00:33:18.271Z,102701.43
2019-04-13T00:34:20.487Z,102703.47
2019-04-13T00:35:22.696Z,102706.64
2019-04-13T00:36:24.898Z,102700.13
2019-04-13T00:37:27.036Z,102704.04
2019-04-13T00:38:29.262Z,102700.13
2019-04-13T00:39:31.475Z,102696.95
2019-04-13T00:40:33.670Z,102696.95
2019-04-13T00:41:35.877Z,102695.66
2019-04-13T00:42:38.078Z,102700.50
2019-04-13T00:43:40.316Z,102691.01
2019-04-13T00:44:42.508Z,102696.59
2019-04-13T00:45:44.711Z,102692.12
2019-04-13T00:46:46.909Z,102693.98
2019-04-13T00:47:49.108Z,102693.98
2019-04-13T00:48:51.334Z,102684.63
2019-04-13T00:49:53.540Z,102689.52
2019-04-13T00:50:55.753Z,102689.84
2019-04-13T00:51:57.954Z,102694.36
2019-04-13T00:53:00.171Z,102686.91
2019-04-13T00:54:02.399Z,102692.12
2019-04-13T00:55:04.607Z,102686.91
2019-04-13T00:56:06.812Z,102687.23
2019-04-13T00:57:09.007Z,102691.15
2019-04-13T00:58:11.237Z,102684.07
2019-04-13T00:59:13.466Z,102682.40
2019-04-13T01:00:15.668Z,102681.47
2019-04-13T01:01:17.887Z,102685.94
2019-04-13T01:02:20.104Z,102673.65
2019-04-13T01:03:22.314Z,102682.77
2019-04-13T01:04:24.543Z,102682.77
2019-04-13T01:05:26.763Z,102685.94
2019-04-13T01:06:29.043Z,102682.77
2019-04-13T01:07:31.280Z,102678.86
2019-04-13T01:08:33.502Z,102682.03
2019-04-13T01:09:35.703Z,102678.48
2019-04-13T01:10:37.918Z,102685.38
2019-04-13T01:11:40.141Z,102683.14
2019-04-13T01:12:42.351Z,102688.91
2019-04-13T01:13:44.591Z,102684.44
2019-04-13T01:14:46.799Z,102680.16
2019-04-13T01:15:49.034Z,102682.77
2019-04-13T01:16:51.252Z,102677.92
2019-04-13T01:17:53.463Z,102675.32
2019-04-13T01:18:56.998Z,102674.39
2019-04-13T01:19:59.381Z,102673.09
2019-04-13T01:21:01.592Z,102675.69
2019-04-13T01:22:03.812Z,102680.91
2019-04-13T01:23:06.035Z,102678.30
2019-04-13T01:24:08.271Z,102675.32
2019-04-13T01:25:10.477Z,102677.00
2019-04-13T01:26:12.683Z,102674.02
2019-04-13T01:27:14.897Z,102681.84
2019-04-13T01:28:17.099Z,102673.45
2019-04-13T01:29:19.328Z,102680.91
2019-04-13T01:30:21.525Z,102676.63
2019-04-13T01:31:23.737Z,102675.69
2019-04-13T01:32:25.943Z,102675.69
2019-04-13T01:33:29.148Z,102681.84
2019-04-13T01:34:31.373Z,102677.36
2019-04-13T01:35:33.601Z,102680.91
2019-04-13T01:36:35.813Z,102678.30
2019-04-13T01:37:38.016Z,102671.18
2019-04-13T01:38:40.211Z,102677.00
2019-04-13T01:39:42.437Z,102674.76
2019-04-13T01:40:44.643Z,102670.84
2019-04-13T01:41:46.865Z,102681.27
2019-04-13T01:42:49.075Z,102679.00
2019-04-13T01:43:51.279Z,102674.16
2019-04-13T01:44:53.504Z,102675.46
2019-04-13T01:45:55.722Z,102673.45
2019-04-13T01:46:57.933Z,102677.14
2019-04-13T01:48:00.134Z,102672.48
2019-04-13T01:49:02.417Z,102672.48
2019-04-13T01:50:04.570Z,102666.71
2019-04-13T01:51:06.781Z,102672.86
2019-04-13T01:52:08.987Z,102666.71
2019-04-13T01:53:11.193Z,102660.56
2019-04-13T01:54:13.412Z,102672.86
2019-04-13T01:55:15.635Z,102659.27
2019-04-13T01:56:17.867Z,102665.78
2019-04-13T01:57:20.077Z,102666.34
2019-04-13T01:58:22.296Z,102668.02
2019-04-13T01:59:24.505Z,102665.41
2019-04-13T02:00:38.673Z,102664.48
2019-04-13T02:02:05.859Z,102664.84
2019-04-13T02:03:08.069Z,102663.55
2019-04-13T02:04:27.489Z,102664.48
2019-04-13T02:05:40.804Z,102665.78
2019-04-13T02:07:01.946Z,102662.61
2019-04-13T02:08:38.517Z,102663.17
2019-04-13T02:09:58.477Z,102665.78
2019-04-13T02:11:05.503Z,102665.78
2019-04-13T02:12:07.715Z,102669.69
2019-04-13T02:13:10.044Z,102658.70
2019-04-13T02:14:12.263Z,102665.22
2019-04-13T02:15:14.458Z,102657.77
2019-04-13T02:16:16.665Z,102661.87
2019-04-13T02:17:18.870Z,102670.05
2019-04-13T02:18:21.079Z,102666.15
2019-04-13T02:19:23.302Z,102659.07
2019-04-13T02:20:25.505Z,102662.61
2019-04-13T02:21:27.697Z,102668.20
2019-04-13T02:22:29.904Z,102667.83
2019-04-13T02:23:32.125Z,102662.05
2019-04-13T02:24:34.328Z,102663.35
2019-04-13T02:25:36.558Z,102664.28
2019-04-13T02:26:38.767Z,102665.02
2019-04-13T02:27:40.971Z,102666.52
2019-04-13T02:28:43.175Z,102662.05
2019-04-13T02:29:45.384Z,102664.66
2019-04-13T02:30:47.602Z,102663.35
2019-04-13T02:31:49.815Z,102668.20
2019-04-13T02:32:52.024Z,102668.20
2019-04-13T02:33:54.230Z,102673.41
2019-04-13T02:34:56.470Z,102671.91
2019-04-13T02:35:58.675Z,102667.26
2019-04-13T02:37:00.867Z,102668.20
2019-04-13T02:38:03.081Z,102665.39
2019-04-13T02:39:06.111Z,102670.23
2019-04-13T02:40:08.348Z,102669.30
2019-04-13T02:41:10.547Z,102665.39
2019-04-13T02:42:12.751Z,102674.52
2019-04-13T02:43:14.958Z,102669.67
2019-04-13T02:44:17.179Z,102672.84
2019-04-13T02:45:19.396Z,102670.98
2019-04-13T02:46:21.603Z,102672.28
2019-04-13T02:47:23.817Z,102677.49
2019-04-13T02:48:26.030Z,102673.21
2019-04-13T02:49:28.251Z,102670.61
2019-04-13T02:50:30.491Z,102671.91
2019-04-13T02:51:32.695Z,102670.98
2019-04-13T02:52:34.916Z,102663.90
2019-04-13T02:53:37.128Z,102672.65
2019-04-13T02:54:39.390Z,102669.11
2019-04-13T02:55:41.622Z,102674.88
2019-04-13T02:56:43.832Z,102670.41
2019-04-13T02:57:46.018Z,102669.48
2019-04-13T02:58:48.233Z,102672.09
2019-04-13T02:59:50.447Z,102666.13
2019-04-13T03:00:52.659Z,102669.11
2019-04-13T03:01:54.877Z,102669.48
2019-04-13T03:02:57.080Z,102668.17
2019-04-13T03:03:59.281Z,102671.72
2019-04-13T03:05:01.496Z,102666.87
2019-04-13T03:06:03.727Z,102668.17
2019-04-13T03:07:05.952Z,102661.10
2019-04-13T03:08:08.144Z,102669.48
2019-04-13T03:09:10.348Z,102663.70
2019-04-13T03:10:12.572Z,102671.34
2019-04-13T03:11:14.830Z,102666.87
2019-04-13T03:12:16.992Z,102666.87
2019-04-13T03:13:19.144Z,102664.08
2019-04-13T03:14:21.398Z,102663.34
2019-04-13T03:15:25.192Z,102658.86
2019-04-13T03:16:45.029Z,102665.01
2019-04-13T03:18:01.540Z,102657.94
2019-04-13T03:19:10.682Z,102660.54
2019-04-13T03:20:31.867Z,102658.86
2019-04-13T03:21:34.062Z,102658.30
2019-04-13T03:22:36.276Z,102657.56
2019-04-13T03:23:38.478Z,102658.30
2019-04-13T03:24:40.682Z,102658.30
2019-04-13T03:25:42.910Z,102654.39
2019-04-13T03:26:45.119Z,102660.17
2019-04-13T03:27:47.415Z,102654.39
2019-04-13T03:28:49.650Z,102661.84
2019-04-13T03:29:51.855Z,102659.61
2019-04-13T03:30:54.078Z,102663.14
2019-04-13T03:31:56.284Z,102658.67
2019-04-13T03:32:58.487Z,102661.28
2019-04-13T03:34:00.712Z,102659.97
2019-04-13T03:35:02.918Z,102663.14
2019-04-13T03:36:05.143Z,102655.14
2019-04-13T03:37:07.316Z,102663.88
2019-04-13T03:38:09.527Z,102657.37
2019-04-13T03:39:11.718Z,102659.97
2019-04-13T03:40:13.923Z,102661.28
2019-04-13T03:41:16.142Z,102661.28
2019-04-13T03:42:18.358Z,102657.74
2019-04-13T03:43:20.553Z,102663.88
2019-04-13T03:44:22.813Z,102655.14
2019-04-13T03:45:24.966Z,102659.05
2019-04-13T03:46:27.186Z,102660.72
2019-04-13T03:47:29.515Z,102653.27
2019-04-13T03:48:31.706Z,102652.34
2019-04-13T03:49:33.919Z,102660.72
2019-04-13T03:50:37.928Z,102661.45
2019-04-13T03:51:40.150Z,102662.39
2019-04-13T03:52:42.346Z,102658.84
2019-04-13T03:53:44.553Z,102658.48
2019-04-13T03:54:46.753Z,102657.55
2019-04-13T03:55:48.966Z,102659.55
2019-04-13T03:56:51.204Z,102664.77
2019-04-13T03:57:53.408Z,102662.16
2019-04-13T03:58:55.611Z,102662.76
2019-04-13T03:59:57.984Z,102660.86
2019-04-13T04:01:00.161Z,102662.76
2019-04-13T04:02:02.420Z,102657.55
2019-04-13T04:03:04.562Z,102663.32
2019-04-13T04:04:06.757Z,102665.73
2019-04-13T04:05:08.930Z,102667.97
2019-04-13T04:06:12.153Z,102664.06
2019-04-13T04:07:15.018Z,102668.34
2019-04-13T04:08:17.566Z,102665.50
2019-04-13T04:09:20.055Z,102666.44
2019-04-13T04:10:22.276Z,102663.27
2019-04-13T04:11:24.513Z,102666.44
2019-04-13T04:12:26.817Z,102667.73
2019-04-13T04:13:29.131Z,102669.41
2019-04-13T04:14:31.355Z,102663.27
2019-04-13T04:15:33.562Z,102661.97
2019-04-13T04:16:36.478Z,102665.88
2019-04-13T04:17:38.681Z,102665.88
2019-04-13T04:18:40.989Z,102656.39
2019-04-13T04:19:43.209Z,102664.77
2019-04-13T04:20:45.411Z,102662.91
2019-04-13T04:21:47.626Z,102664.77
2019-04-13T04:22:49.823Z,102668.67
2019-04-13T04:23:52.027Z,102663.46
2019-04-13T04:24:54.257Z,102665.13
2019-04-13T04:25:56.468Z,102665.88
2019-04-13T04:26:58.689Z,102668.11
2019-04-13T04:28:00.883Z,102660.66
2019-04-13T04:29:03.103Z,102667.55
2019-04-13T04:30:05.313Z,102661.59
2019-04-13T04:31:07.515Z,102658.06
2019-04-13T04:32:09.754Z,102662.70
2019-04-13T04:33:12.019Z,102663.64
2019-04-13T04:34:14.236Z,102664.01
2019-04-13T04:35:16.435Z,102668.85
2019-04-13T04:36:23.945Z,102664.94
2019-04-13T04:37:22.537Z,102664.01
2019-04-13T04:38:24.738Z,102667.36
2019-04-13T04:39:26.930Z,102666.98
2019-04-13T04:40:29.136Z,102672.19
2019-04-13T04:41:31.418Z,102666.24
2019-04-13T04:42:33.654Z,102673.69
2019-04-13T04:43:35.873Z,102665.69
2019-04-13T04:44:38.071Z,102669.22
2019-04-13T04:45:40.269Z,102658.80
2019-04-13T04:46:42.487Z,102663.45
2019-04-13T04:47:44.700Z,102663.81
2019-04-13T04:48:46.897Z,102666.42
2019-04-13T04:49:49.107Z,102666.98
2019-04-13T04:50:51.301Z,102669.59
2019-04-13T04:51:53.525Z,102662.70
2019-04-13T04:52:55.723Z,102665.31
2019-04-13T04:53:57.941Z,102664.01
2019-04-13T04:55:00.156Z,102667.91
2019-04-13T04:56:02.355Z,102672.56
2019-04-13T04:57:04.702Z,102670.33
2019-04-13T04:58:06.898Z,102667.36
2019-04-13T04:59:09.123Z,102665.31
2019-04-13T05:00:11.577Z,102663.08
2019-04-13T05:01:13.793Z,102669.22
2019-04-13T05:02:16.044Z,102665.69
2019-04-13T05:03:18.233Z,102667.36
2019-04-13T05:04:20.434Z,102669.02
2019-04-13T05:05:22.630Z,102668.66
2019-04-13T05:06:35.471Z,102672.00
2019-04-13T05:07:28.700Z,102662.14
2019-04-13T05:08:30.913Z,102666.79
2019-04-13T05:09:33.115Z,102669.02
2019-04-13T05:10:35.733Z,102669.39
2019-04-13T05:11:37.952Z,102673.30
2019-04-13T05:12:40.162Z,102673.67
2019-04-13T05:13:42.366Z,102673.67
2019-04-13T05:14:44.577Z,102676.28
2019-04-13T05:15:46.797Z,102675.17
2019-04-13T05:16:48.983Z,102674.61
2019-04-13T05:17:51.219Z,102676.84
2019-04-13T05:18:53.367Z,102674.05
2019-04-13T05:19:55.557Z,102677.21
2019-04-13T05:20:57.871Z,102676.47
2019-04-13T05:22:00.125Z,102676.65
2019-04-13T05:23:02.343Z,102672.00
2019-04-13T05:24:04.567Z,102674.05
2019-04-13T05:25:06.757Z,102677.95
2019-04-13T05:26:08.990Z,102678.52
2019-04-13T05:27:11.215Z,102682.80
2019-04-13T05:28:13.426Z,102671.06
2019-04-13T05:29:15.635Z,102676.65
2019-04-13T05:30:17.860Z,102671.44
2019-04-13T05:31:20.046Z,102669.20
2019-04-13T05:32:22.263Z,102674.98
2019-04-13T05:33:24.465Z,102672.38
2019-04-13T05:34:26.694Z,102666.79
2019-04-13T05:35:28.894Z,102666.79
2019-04-13T05:36:31.026Z,102673.30
2019-04-13T05:37:33.246Z,102662.69
2019-04-13T05:38:35.456Z,102661.95
2019-04-13T05:39:37.663Z,102663.63
2019-04-13T05:40:39.862Z,102659.72
2019-04-13T05:41:42.058Z,102662.32
2019-04-13T05:42:44.318Z,102664.55
2019-04-13T05:43:46.510Z,102660.65
2019-04-13T05:44:48.712Z,102665.86
2019-04-13T05:45:50.906Z,102668.09
2019-04-13T05:46:53.118Z,102662.52
2019-04-13T05:47:55.334Z,102666.42
2019-04-13T05:48:57.555Z,102664.92
2019-04-13T05:49:59.757Z,102669.39
2019-04-13T05:51:01.980Z,102669.02
2019-04-13T05:52:04.194Z,102670.33
2019-04-13T05:53:06.402Z,102669.77
2019-04-13T05:54:08.740Z,102665.12
2019-04-13T05:55:10.948Z,102665.12
2019-04-13T05:56:13.139Z,102665.48
2019-04-13T05:57:15.346Z,102661.58
2019-04-13T05:58:17.612Z,102666.79
2019-04-13T05:59:21.247Z,102665.12
2019-04-13T06:00:23.542Z,102660.28
2019-04-13T06:01:25.750Z,102675.54
2019-04-13T06:02:27.996Z,102668.66
2019-04-13T06:03:30.203Z,102668.28
2019-04-13T06:04:32.422Z,102670.33
2019-04-13T06:05:34.630Z,102672.94
2019-04-13T06:06:36.826Z,102672.19
2019-04-13T06:07:39.078Z,102672.00
2019-04-13T06:08:41.277Z,102665.69
2019-04-13T06:09:43.487Z,102669.96
2019-04-13T06:10:47.830Z,102665.48
2019-04-13T06:11:49.546Z,102673.87
2019-04-13T06:12:54.201Z,102672.00
2019-04-13T06:13:57.938Z,102668.28
2019-04-13T06:14:59.642Z,102671.63
2019-04-13T06:16:06.590Z,102663.45
2019-04-13T06:17:07.264Z,102663.45
2019-04-13T06:18:20.376Z,102662.52
2019-04-13T06:19:13.326Z,102664.19
2019-04-13T06:20:15.532Z,102666.42
2019-04-13T06:21:17.750Z,102672.94
2019-04-13T06:22:19.954Z,102665.12
2019-04-13T06:23:22.191Z,102670.52
2019-04-13T06:24:24.402Z,102664.06
2019-04-13T06:25:29.488Z,102667.98
2019-04-13T06:26:30.459Z,102668.17
2019-04-13T06:27:32.674Z,102665.39
2019-04-13T06:28:34.960Z,102667.26
2019-04-13T06:29:37.159Z,102670.80
2019-04-13T06:31:03.286Z,102671.36
2019-04-13T06:32:26.823Z,102669.50
2019-04-13T06:33:43.577Z,102669.69
2019-04-13T06:35:03.846Z,102665.78
2019-04-13T06:36:08.298Z,102660.56
2019-04-13T06:37:12.354Z,102673.79
2019-04-13T06:38:13.776Z,102673.79
2019-04-13T06:39:15.971Z,102665.64
2019-04-13T06:40:18.173Z,102663.03
2019-04-13T06:41:20.381Z,102664.52
2019-04-13T06:42:22.577Z,102660.84
2019-04-13T06:43:26.780Z,102667.70
2019-04-13T06:44:32.162Z,102667.19
2019-04-13T06:45:32.500Z,102666.62
2019-04-13T06:46:34.716Z,102666.77
2019-04-13T06:47:36.920Z,102660.98
2019-04-13T06:48:39.165Z,102665.64
2019-04-13T06:49:41.369Z,102670.99
2019-04-13T06:50:43.591Z,102663.35
2019-04-13T06:51:45.779Z,102661.48
2019-04-13T06:52:48.023Z,102661.30
2019-04-13T06:53:50.254Z,102657.76
2019-04-13T06:54:52.568Z,102659.80
2019-04-13T06:55:54.805Z,102656.82
2019-04-13T06:56:57.003Z,102659.43
2019-04-13T06:57:59.211Z,102657.94
2019-04-13T06:59:01.435Z,102665.38
2019-04-13T07:00:03.898Z,102659.80
2019-04-13T07:01:06.168Z,102653.28
2019-04-13T07:02:08.372Z,102655.33
2019-04-13T07:03:10.604Z,102657.56
2019-04-13T07:04:12.836Z,102661.47
2019-04-13T07:05:15.032Z,102659.61
2019-04-13T07:06:17.240Z,102661.10
2019-04-13T07:07:45.732Z,102657.17
2019-04-13T07:08:52.512Z,102662.03
2019-04-13T07:10:07.615Z,102653.48
2019-04-13T07:11:24.035Z,102652.73
2019-04-13T07:12:33.579Z,102656.08
2019-04-13T07:13:43.137Z,102652.73
2019-04-13T07:14:45.619Z,102653.09
2019-04-13T07:15:51.021Z,102651.06
2019-04-13T07:16:56.527Z,102648.65
2019-04-13T07:17:58.769Z,102656.09
2019-04-13T07:19:00.969Z,102648.65
2019-04-13T07:20:03.199Z,102653.49
2019-04-13T07:21:05.414Z,102646.41
2019-04-13T07:22:07.644Z,102648.45
2019-04-13T07:23:09.847Z,102645.30
2019-04-13T07:24:12.043Z,102649.20
2019-04-13T07:25:14.310Z,102652.73
2019-04-13T07:26:16.529Z,102652.17
2019-04-13T07:27:18.747Z,102648.27
2019-04-13T07:28:20.943Z,102642.12
2019-04-13T07:29:24.428Z,102643.80
2019-04-13T07:30:26.844Z,102646.59
2019-04-13T07:31:31.119Z,102646.03
2019-04-13T07:32:34.654Z,102640.45
2019-04-13T07:33:36.811Z,102645.66
2019-04-13T07:34:39.017Z,102652.55
2019-04-13T07:35:41.223Z,102647.70
2019-04-13T07:36:43.410Z,102650.87
2019-04-13T07:37:45.657Z,102655.15
2019-04-13T07:38:47.861Z,102651.24
2019-04-13T07:39:50.069Z,102653.28
2019-04-13T07:40:52.302Z,102652.55
2019-04-13T07:41:54.501Z,102658.13
2019-04-13T07:42:58.146Z,102654.78
2019-04-13T07:44:00.567Z,102658.69
2019-04-13T07:45:27.739Z,102654.78
2019-04-13T07:46:37.562Z,102657.39
2019-04-13T07:47:57.748Z,102664.27
2019-04-13T07:49:18.894Z,102658.13
2019-04-13T07:50:28.883Z,102664.83
2019-04-13T07:51:51.784Z,102663.70
2019-04-13T07:52:54.122Z,102664.27
2019-04-13T07:53:56.365Z,102673.02
2019-04-13T07:54:58.639Z,102667.61
2019-04-13T07:56:00.855Z,102671.16
2019-04-13T07:57:05.321Z,102673.95
2019-04-13T07:58:06.939Z,102675.25
2019-04-13T07:59:09.136Z,102675.62
2019-04-13T08:00:11.367Z,102679.16
2019-04-13T08:01:13.572Z,102671.34
2019-04-13T08:02:16.300Z,102665.77
2019-04-13T08:03:18.501Z,102676.00
2019-04-13T08:04:20.726Z,102671.72
2019-04-13T08:05:22.946Z,102671.34
2019-04-13T08:06:26.059Z,102673.58
2019-04-13T08:07:28.399Z,102670.05
2019-04-13T08:08:39.627Z,102665.20
2019-04-13T08:09:36.180Z,102677.86
2019-04-13T08:10:38.432Z,102671.34
2019-04-13T08:11:40.642Z,102674.32
2019-04-13T08:12:42.981Z,102672.65
2019-04-13T08:13:45.200Z,102673.02
2019-04-13T08:14:47.402Z,102666.13
2019-04-13T08:15:49.603Z,102666.13
2019-04-13T08:16:51.815Z,102668.38
2019-04-13T08:17:54.042Z,102664.83
2019-04-13T08:19:06.668Z,102662.23
2019-04-13T08:20:33.848Z,102658.31
2019-04-13T08:21:37.484Z,102661.86
2019-04-13T08:22:39.699Z,102663.90
2019-04-13T08:23:54.214Z,102659.62
2019-04-13T08:24:56.402Z,102661.30
2019-04-13T08:25:58.640Z,102661.86
2019-04-13T08:27:00.870Z,102663.53
2019-04-13T08:28:03.074Z,102662.79
2019-04-13T08:29:05.280Z,102660.55
2019-04-13T08:30:08.612Z,102664.09
2019-04-13T08:31:10.847Z,102664.09
2019-04-13T08:32:13.064Z,102657.95
2019-04-13T08:33:15.264Z,102664.46
2019-04-13T08:34:17.482Z,102671.54
2019-04-13T08:35:19.799Z,102674.14
2019-04-13T08:36:22.016Z,102674.52
2019-04-13T08:37:24.221Z,102671.34
2019-04-13T08:38:28.668Z,102674.14
2019-04-13T08:39:30.308Z,102673.21
2019-04-13T08:40:32.519Z,102671.72
2019-04-13T08:41:34.742Z,102672.09
2019-04-13T08:42:36.946Z,102674.32
2019-04-13T08:43:39.206Z,102668.55
2019-04-13T08:44:41.389Z,102675.62
2019-04-13T08:45:44.365Z,102672.45
2019-04-13T08:46:47.158Z,102669.48
2019-04-13T08:47:49.449Z,102673.95
2019-04-13T08:48:51.662Z,102674.32
2019-04-13T08:49:53.853Z,102674.69
2019-04-13T08:50:56.078Z,102673.76
2019-04-13T08:51:58.284Z,102675.43
2019-04-13T08:53:00.483Z,102671.89
2019-04-13T08:54:02.699Z,102673.20
2019-04-13T08:55:04.928Z,102676.37
2019-04-13T08:56:07.159Z,102675.43
2019-04-13T08:57:09.379Z,102678.41
2019-04-13T08:58:11.602Z,102678.41
2019-04-13T08:59:14.068Z,102674.13
2019-04-13T09:00:16.656Z,102674.30
2019-04-13T09:01:18.905Z,102673.94
2019-04-13T09:02:21.216Z,102678.78
2019-04-13T09:03:23.425Z,102673.20
2019-04-13T09:04:25.660Z,102675.43
2019-04-13T09:05:27.865Z,102669.11
2019-04-13T09:06:30.169Z,102675.06
2019-04-13T09:07:32.360Z,102677.67
2019-04-13T09:08:34.562Z,102676.73
2019-04-13T09:09:38.767Z,102674.69
2019-04-13T09:10:41.493Z,102677.67
2019-04-13T09:11:43.919Z,102678.42
2019-04-13T09:12:50.109Z,102675.08
2019-04-13T09:13:49.959Z,102670.23
2019-04-13T09:14:55.612Z,102677.31
2019-04-13T09:15:56.145Z,102673.77
2019-04-13T09:16:58.357Z,102676.75
2019-04-13T09:18:37.955Z,102673.77
2019-04-13T09:19:48.766Z,102673.97
2019-04-13T09:21:05.780Z,102673.03
2019-04-13T09:22:22.489Z,102672.30
2019-04-13T09:23:25.410Z,102664.67
2019-04-13T09:24:27.696Z,102664.89
2019-04-13T09:25:29.907Z,102661.73
2019-04-13T09:26:36.321Z,102657.82
2019-04-13T09:27:40.321Z,102660.05
2019-04-13T09:28:42.867Z,102660.05
2019-04-13T09:29:44.568Z,102658.16
2019-04-13T09:30:47.664Z,102646.43
2019-04-13T09:31:50.167Z,102654.62
2019-04-13T09:32:52.513Z,102654.25
2019-04-13T09:33:54.730Z,102653.69
2019-04-13T09:34:56.947Z,102657.96
2019-04-13T09:35:59.157Z,102651.25
2019-04-13T09:37:01.388Z,102656.09
2019-04-13T09:38:03.792Z,102653.49
2019-04-13T09:39:07.463Z,102646.98
2019-04-13T09:40:09.694Z,102655.36
2019-04-13T09:41:11.931Z,102651.64
2019-04-13T09:42:14.152Z,102645.12
2019-04-13T09:43:23.950Z,102646.43
2019-04-13T09:44:31.605Z,102650.70
2019-04-13T09:45:34.518Z,102651.64
2019-04-13T09:46:38.125Z,102646.43
2019-04-13T09:47:42.236Z,102651.87
2019-04-13T09:48:48.667Z,102649.63
2019-04-13T09:49:49.623Z,102645.55
2019-04-13T09:50:52.073Z,102647.08
2019-04-13T09:51:54.420Z,102645.96
2019-04-13T09:52:56.659Z,102655.64
2019-04-13T09:53:58.878Z,102652.11
2019-04-13T09:55:01.091Z,102645.22
2019-04-13T09:56:03.522Z,102651.92
2019-04-13T09:57:07.309Z,102651.37
2019-04-13T09:58:09.527Z,102658.08
2019-04-13T09:59:13.557Z,102644.66
2019-04-13T10:00:15.779Z,102652.48
2019-04-13T10:01:17.977Z,102644.66
2019-04-13T10:02:20.214Z,102650.24
2019-04-13T10:03:22.434Z,102650.61
2019-04-13T10:04:24.652Z,102650.05
2019-04-13T10:05:29.162Z,102644.84
2019-04-13T10:06:30.718Z,102647.22
2019-04-13T10:07:32.958Z,102640.52
2019-04-13T10:08:35.183Z,102644.42
2019-04-13T10:09:39.700Z,102642.94
2019-04-13T10:10:41.831Z,102637.39
2019-04-13T10:11:53.360Z,102638.33
2019-04-13T10:13:10.155Z,102639.26
2019-04-13T10:14:36.273Z,102632.74
2019-04-13T10:16:06.104Z,102640.00
2019-04-13T10:17:15.871Z,102643.53
2019-04-13T10:18:22.204Z,102638.09
2019-04-13T10:19:24.517Z,102639.40
2019-04-13T10:20:26.743Z,102631.95
2019-04-13T10:21:28.962Z,102633.63
2019-04-13T10:22:31.192Z,102634.19
2019-04-13T10:23:33.419Z,102626.97
2019-04-13T10:24:38.713Z,102626.23
2019-04-13T10:25:40.918Z,102621.38
2019-04-13T10:26:43.123Z,102624.55
2019-04-13T10:27:47.672Z,102621.58
2019-04-13T10:28:49.234Z,102614.88
2019-04-13T10:29:51.441Z,102617.11
2019-04-13T10:30:55.781Z,102615.06
2019-04-13T10:31:58.992Z,102620.27
2019-04-13T10:33:01.418Z,102615.43
2019-04-13T10:34:03.628Z,102617.47
2019-04-13T10:35:06.243Z,102611.66
2019-04-13T10:36:08.467Z,102622.46
2019-04-13T10:37:10.697Z,102616.69
2019-04-13T10:38:12.925Z,102617.98
2019-04-13T10:39:15.123Z,102614.08
2019-04-13T10:40:17.366Z,102617.43
2019-04-13T10:41:19.573Z,102611.25
2019-04-13T10:42:21.794Z,102610.69
2019-04-13T10:43:24.049Z,102609.02
2019-04-13T10:44:32.322Z,102608.45
2019-04-13T10:46:08.885Z,102613.30
2019-04-13T10:47:33.146Z,102614.22
2019-04-13T10:49:12.725Z,102609.24
2019-04-13T10:50:42.543Z,102614.45
2019-04-13T10:52:03.698Z,102617.06
2019-04-13T10:53:06.131Z,102614.08
2019-04-13T10:54:08.346Z,102616.69
2019-04-13T10:55:10.567Z,102620.59
2019-04-13T10:56:12.782Z,102615.76
2019-04-13T10:57:15.012Z,102620.97
2019-04-13T10:58:17.298Z,102619.66
2019-04-13T10:59:19.503Z,102624.88
2019-04-13T11:00:22.041Z,102616.46
2019-04-13T11:01:24.383Z,102620.03
2019-04-13T11:02:26.591Z,102616.13
2019-04-13T11:03:28.800Z,102617.06
2019-04-13T11:04:31.012Z,102621.91
2019-04-13T11:05:33.251Z,102613.71
2019-04-13T11:06:35.478Z,102613.15
2019-04-13T11:07:37.672Z,102615.39
2019-04-13T11:08:39.900Z,102611.48
2019-04-13T11:09:42.110Z,102610.73
2019-04-13T11:10:44.327Z,102611.66
2019-04-13T11:11:46.549Z,102611.66
2019-04-13T11:12:48.775Z,102612.03
2019-04-13T11:13:51.003Z,102610.36
2019-04-13T11:14:53.218Z,102612.27
2019-04-13T11:15:55.411Z,102612.27
2019-04-13T11:16:58.818Z,102611.33
2019-04-13T11:18:03.936Z,102611.33
2019-04-13T11:19:07.491Z,102602.92
2019-04-13T11:20:13.723Z,102606.13
2019-04-13T11:21:14.374Z,102609.66
2019-04-13T11:22:21.711Z,102606.88
2019-04-13T11:23:22.137Z,102602.40
2019-04-13T11:24:24.358Z,102611.16
2019-04-13T11:25:26.546Z,102602.96
2019-04-13T11:26:28.762Z,102604.83
2019-04-13T11:27:31.013Z,102599.05
2019-04-13T11:28:33.215Z,102601.29
2019-04-13T11:29:35.424Z,102603.89
2019-04-13T11:30:37.640Z,102602.22
2019-04-13T11:31:39.874Z,102607.06
2019-04-13T11:32:42.230Z,102607.99
2019-04-13T11:33:44.453Z,102600.36
2019-04-13T11:34:46.664Z,102598.12
2019-04-13T11:35:48.868Z,102601.09
2019-04-13T11:36:51.108Z,102596.26
2019-04-13T11:37:53.356Z,102597.56
2019-04-13T11:38:55.576Z,102599.42
2019-04-13T11:39:57.786Z,102598.49
2019-04-13T11:41:13.492Z,102598.49
2019-04-13T11:42:33.702Z,102601.09
2019-04-13T11:43:54.070Z,102597.19
2019-04-13T11:45:14.293Z,102591.61
2019-04-13T11:46:47.585Z,102600.54
2019-04-13T11:48:08.431Z,102594.95
2019-04-13T11:49:13.274Z,102601.66
2019-04-13T11:50:19.144Z,102598.69
2019-04-13T11:51:25.499Z,102595.70
2019-04-13T11:52:27.725Z,102600.92
2019-04-13T11:53:29.936Z,102595.33
2019-04-13T11:54:32.179Z,102597.01
2019-04-13T11:55:34.800Z,102599.61
2019-04-13T11:56:38.007Z,102603.16
2019-04-13T11:57:40.317Z,102602.59
2019-04-13T11:58:42.528Z,102600.36
2019-04-13T11:59:44.870Z,102599.42
2019-04-13T12:01:15.125Z,102604.64
2019-04-13T12:02:40.239Z,102607.80
2019-04-13T12:04:01.397Z,102608.17
2019-04-13T12:05:29.087Z,102607.61
2019-04-13T12:06:39.671Z,102605.94
2019-04-13T12:07:52.758Z,102604.45
2019-04-13T12:09:03.912Z,102610.59
2019-04-13T12:10:28.165Z,102609.66
2019-04-13T12:11:55.971Z,102608.73